TUS - Tucson Intl

Pirep is a free, collaborative database of all public and private airports located within the United States. All pilots are welcome to contribute, edit, and improve any airport they have local knowledge about, no registration required.
Uploaded photos will be licensed under a CC BY-SA 4.0 license. Please only upload photos you have the rights to use.
Tags
Public
METAR / TAF
Flying Clubs
Edit Tags
Food
Camping
Lodging
Car Rental
Bicycles
Swimming
Golfing
Fishing
Hot Springs
Museum
Airpark
Upcoming Events
No upcoming events. Is anything happening here soon?
*
*
*

Where exactly on/near the airport is this event taking place?

Is there a webpage with more information for this event?

Who should be contacted for more information?

What is this event all about?

Repeat every
Description
Transient Parking
Fuel Location
Landing & Tie-down Fees
Crew Car Availability
Flying Clubs
Last updated: 2024-03-17 17:16:15 MST
WiFi Access
Airport Statistics
Location: Tucson, AZ
Elevation: 2,643ft
Sectional: Phoenix
Activation date: Nov 1941
Fuel: 100LL, A, A++ (prices)
Runway 11L/29R: 10,996ft
Runway 12/30: 10,996ft
Runway 11R/29L: 8,408ft
Runway 03/21: 7,000ft
Runway 04/22: 7,000ft
Access: Open to the public
Current Weather — VFR
  • Weather data is strictly informational and not for flight planning purposes.
  • METAR
    2024-05-29 09:53:00 MST
    Ceiling Wind Temperature Dewpoint Weather Visbility
    Sky clear Calm 87°F 24°F N/A 10SM
    Raw: KTUS 291653Z 00000KT 10SM CLR 31/M04 A3004 RMK AO2 SLP119 T03061044
  • TAF
    2024-05-29 11:00:00 MST – 2024-05-29 13:00:00 MST
    Ceiling Wind Weather Visbility
    Sky clear 230° @ 6kt N/A 6SM
    Clouds: @ ft
    Raw: KTUS 291720Z 2918/3018 23006KT P6SM SKC FM292000 25011G19KT P6SM SKC FM300200 27008KT P6SM SKC FM300700 15006KT P6SM SKC
  • TAF
    2024-05-29 13:00:00 MST – 2024-05-29 19:00:00 MST
    Ceiling Wind Weather Visbility
    Sky clear 250° @ 11kt, gusts 19kt N/A 6SM
    Clouds: @ ft
    Raw: KTUS 291720Z 2918/3018 23006KT P6SM SKC FM292000 25011G19KT P6SM SKC FM300200 27008KT P6SM SKC FM300700 15006KT P6SM SKC
  • TAF
    2024-05-29 19:00:00 MST – 2024-05-30 00:00:00 MST
    Ceiling Wind Weather Visbility
    Sky clear 270° @ 8kt N/A 6SM
    Clouds: @ ft
    Raw: KTUS 291720Z 2918/3018 23006KT P6SM SKC FM292000 25011G19KT P6SM SKC FM300200 27008KT P6SM SKC FM300700 15006KT P6SM SKC
  • TAF
    2024-05-30 00:00:00 MST – 2024-05-30 11:00:00 MST
    Ceiling Wind Weather Visbility
    Sky clear 150° @ 6kt N/A 6SM
    Clouds: @ ft
    Raw: KTUS 291720Z 2918/3018 23006KT P6SM SKC FM292000 25011G19KT P6SM SKC FM300200 27008KT P6SM SKC FM300700 15006KT P6SM SKC
Click/tap to add an annotation marker to the map
Airport Webcams
No webcams added yet.
Direct links to live image URLs will be displayed inline on this page. URLs to separate webpages will be linked to.
URL:
Direct links to live image URLs will be displayed inline on this page. URLs to separate webpages will be linked to.
URL:
Remarks
  • Ctn: nw arr & dep do not mistake twy a for lndg sfc; twy a n & parl to rwy 30.
  • Ptns twy d not vis fm atct.
  • Flt trng 2200-0600 na exc ppr - 520-573-8190.
  • Group v tax with inboard eng only. trml ramp clsd to adg iv & abv wo ppr.
  • Acr use rwy 04/22 & 12/30.
Comments
Leave a comment What was your experience like at this airport?